Time;durP1;ratioP1;P1;durP2;ratioP2;P2;SDS_P1;SDS_P2;PMS_P1;PMS_P2;Temp;Humidity;BMP_temperature;BMP_pressure;BME280_temperature;BME280_humidity;BME280_pressure;Samples;Min_cycle;Max_cycle;Signal;HPM_P1;HPM_P2
2023/03/29 00:00:12;;;;;;;15.17;7.67;;;8.00;96.80;;;;;;5054993;28;20485;-61
2023/03/29 00:02:39;;;;;;;19.47;7.73;;;8.00;96.70;;;;;;5057859;28;20490;-61
2023/03/29 00:05:08;;;;;;;20.47;8.13;;;8.10;96.40;;;;;;5070775;28;20871;-61
2023/03/29 00:07:35;;;;;;;17.67;8.53;;;8.10;96.40;;;;;;5039212;28;20481;-61
2023/03/29 00:10:03;;;;;;;19.10;8.67;;;8.10;96.60;;;;;;5058524;28;20508;-61
2023/03/29 00:12:30;;;;;;;15.70;5.97;;;8.20;96.30;;;;;;5078532;28;20458;-60
2023/03/29 00:14:58;;;;;;;16.63;8.03;;;8.20;96.00;;;;;;5053901;28;20481;-61
2023/03/29 00:17:25;;;;;;;12.50;5.93;;;8.20;96.10;;;;;;5068893;28;20489;-61
2023/03/29 00:19:51;;;;;;;19.03;6.13;;;8.20;96.60;;;;;;5053661;28;20466;-61
2023/03/29 00:22:18;;;;;;;23.20;9.40;;;8.20;96.80;;;;;;5065996;28;21003;-61
2023/03/29 00:24:46;;;;;;;11.97;5.37;;;8.30;96.50;;;;;;5053356;28;20454;-61
2023/03/29 00:27:13;;;;;;;31.17;11.10;;;8.30;96.20;;;;;;5054226;28;20481;-61
2023/03/29 00:29:40;;;;;;;12.60;6.17;;;8.30;96.10;;;;;;5055020;28;20486;-61
2023/03/29 00:32:08;;;;;;;23.30;9.57;;;8.40;96.00;;;;;;5061739;28;20859;-61
2023/03/29 00:34:35;;;;;;;18.07;6.97;;;8.50;96.00;;;;;;5046322;28;20484;-61
2023/03/29 00:37:02;;;;;;;15.70;7.73;;;8.60;96.00;;;;;;5074319;28;21737;-61
2023/03/29 00:39:30;;;;;;;19.40;8.23;;;8.60;96.00;;;;;;5057663;28;20523;-60
2023/03/29 00:41:57;;;;;;;16.70;8.20;;;8.60;96.30;;;;;;5066348;28;20488;-61
2023/03/29 00:44:56;;;;;;;14.30;6.87;;;8.60;96.10;;;;;;5040567;28;20516;-60
2023/03/29 00:47:27;;;;;;;22.83;7.50;;;8.60;96.30;;;;;;5034700;28;21614;-60
2023/03/29 00:49:56;;;;;;;16.50;6.67;;;8.60;96.50;;;;;;5054484;28;20554;-61
2023/03/29 00:52:29;;;;;;;19.43;7.40;;;8.50;96.10;;;;;;5067972;28;20478;-60
2023/03/29 00:54:59;;;;;;;14.33;6.50;;;8.50;96.00;;;;;;5039556;28;20477;-61
2023/03/29 00:57:27;;;;;;;17.77;7.33;;;8.50;96.20;;;;;;5064948;28;20476;-61
2023/03/29 00:59:55;;;;;;;15.77;7.57;;;8.60;96.10;;;;;;5048385;28;20836;-60
2023/03/29 01:02:25;;;;;;;15.73;7.33;;;8.60;96.40;;;;;;5048489;28;20482;-60
2023/03/29 01:04:57;;;;;;;27.83;6.67;;;8.70;96.20;;;;;;5038815;28;20504;-60
2023/03/29 01:07:29;;;;;;;16.13;8.30;;;8.70;96.20;;;;;;5047798;28;20473;-60
2023/03/29 01:10:02;;;;;;;10.20;5.80;;;8.60;96.60;;;;;;5029641;28;20466;-61
2023/03/29 01:12:34;;;;;;;18.77;7.90;;;8.60;96.70;;;;;;5060355;28;20939;-61
2023/03/29 01:15:06;;;;;;;20.07;9.87;;;8.70;96.50;;;;;;5039661;28;20651;-61
2023/03/29 01:17:34;;;;;;;17.43;6.80;;;8.70;96.40;;;;;;5034969;28;20482;-60
2023/03/29 01:20:12;;;;;;;14.83;7.80;;;8.80;96.40;;;;;;5065513;28;21052;-61
2023/03/29 01:22:50;;;;;;;10.90;6.00;;;8.70;96.60;;;;;;5058406;28;20982;-60
2023/03/29 01:25:25;;;;;;;33.57;15.83;;;8.50;96.80;;;;;;5052484;27;20845;-61
2023/03/29 01:27:56;;;;;;;12.17;6.03;;;8.40;97.00;;;;;;5062034;27;20492;-61
2023/03/29 01:30:28;;;;;;;14.80;8.17;;;8.50;96.80;;;;;;5053838;28;20504;-60
2023/03/29 01:32:58;;;;;;;12.13;6.53;;;8.50;96.60;;;;;;5069713;28;20513;-61
2023/03/29 01:35:31;;;;;;;18.73;6.67;;;8.10;97.00;;;;;;5048387;28;20901;-61
2023/03/29 01:38:04;;;;;;;14.50;6.60;;;7.90;97.00;;;;;;5057654;28;20605;-60
2023/03/29 01:40:33;;;;;;;20.20;7.07;;;7.80;97.10;;;;;;5048261;28;20469;-61
2023/03/29 01:43:10;;;;;;;25.30;9.83;;;7.90;96.90;;;;;;5073120;28;20466;-61
2023/03/29 01:45:43;;;;;;;20.90;10.30;;;7.80;96.80;;;;;;5055280;28;21195;-60
2023/03/29 01:48:16;;;;;;;28.40;12.93;;;7.70;97.00;;;;;;5062250;28;20483;-61
2023/03/29 01:50:47;;;;;;;19.27;10.07;;;7.80;97.00;;;;;;5054725;28;21207;-61
2023/03/29 01:53:17;;;;;;;31.57;10.30;;;7.70;96.60;;;;;;5060863;28;20471;-61
2023/03/29 01:55:50;;;;;;;19.97;8.87;;;7.60;97.10;;;;;;5056787;28;20881;-60
2023/03/29 01:58:21;;;;;;;29.63;11.03;;;7.40;97.10;;;;;;5050836;28;20925;-61
2023/03/29 02:00:49;;;;;;;11.70;6.50;;;7.40;97.00;;;;;;5056524;28;20475;-60
2023/03/29 02:03:17;;;;;;;23.07;10.30;;;7.50;96.70;;;;;;5049254;28;20916;-60
2023/03/29 02:05:45;;;;;;;16.57;8.53;;;7.50;96.40;;;;;;5062990;28;20497;-60
2023/03/29 02:08:14;;;;;;;24.93;11.77;;;7.50;96.50;;;;;;5062248;28;20478;-61
2023/03/29 02:10:41;;;;;;;22.47;10.07;;;7.50;96.70;;;;;;5048218;28;20498;-61
2023/03/29 02:13:08;;;;;;;30.70;12.33;;;7.50;96.60;;;;;;5045062;28;20497;-61
2023/03/29 02:15:36;;;;;;;16.30;8.10;;;8.30;96.90;;;;;;5049289;28;20473;-60
2023/03/29 02:18:05;;;;;;;19.50;8.40;;;7.60;96.50;;;;;;5057068;28;20547;-61
2023/03/29 02:20:35;;;;;;;22.60;8.10;;;7.60;96.30;;;;;;5029169;28;21124;-61
2023/03/29 02:23:07;;;;;;;14.87;7.00;;;7.60;96.10;;;;;;5052359;28;20584;-61
2023/03/29 02:25:36;;;;;;;17.20;8.23;;;7.50;95.80;;;;;;5034090;28;20489;-60
2023/03/29 02:28:03;;;;;;;24.33;10.93;;;7.40;95.80;;;;;;5044454;27;20903;-60
2023/03/29 02:30:49;;;;;;;14.60;6.90;;;7.40;95.60;;;;;;5038131;28;20477;-60
2023/03/29 02:33:20;;;;;;;36.00;14.90;;;7.30;95.60;;;;;;5047352;28;20489;-60
2023/03/29 02:35:53;;;;;;;19.13;8.70;;;7.30;95.40;;;;;;5039102;28;20482;-60
2023/03/29 02:38:20;;;;;;;21.43;7.40;;;7.20;95.60;;;;;;5054619;28;20501;-60
2023/03/29 02:40:47;;;;;;;15.30;6.60;;;7.20;95.80;;;;;;5042519;28;20485;-60
2023/03/29 02:43:16;;;;;;;27.03;11.67;;;7.20;95.80;;;;;;5060507;28;20486;-61
2023/03/29 02:45:45;;;;;;;16.20;5.43;;;7.10;95.80;;;;;;5065962;28;20969;-60
2023/03/29 02:48:17;;;;;;;26.73;9.97;;;7.10;95.90;;;;;;5041014;28;20507;-60
2023/03/29 02:50:46;;;;;;;14.73;6.10;;;;;;;;;;5039510;28;20521;-60
2023/03/29 02:53:16;;;;;;;29.10;11.70;;;6.90;96.30;;;;;;5073993;28;20852;-60
2023/03/29 02:55:44;;;;;;;16.13;6.80;;;6.80;96.40;;;;;;5067493;28;20736;-60
2023/03/29 02:58:12;;;;;;;21.73;9.13;;;6.80;96.20;;;;;;5068849;28;20585;-60
2023/03/29 03:00:43;;;;;;;14.13;6.37;;;6.80;96.10;;;;;;5059253;27;20504;-60
2023/03/29 03:03:14;;;;;;;31.03;12.00;;;6.80;96.00;;;;;;5041284;28;20518;-60
2023/03/29 03:05:41;;;;;;;20.80;6.13;;;6.80;95.90;;;;;;5054289;28;20477;-60
2023/03/29 03:08:08;;;;;;;27.20;11.17;;;6.80;96.00;;;;;;5051475;28;20602;-60
2023/03/29 03:10:35;;;;;;;14.70;7.30;;;6.80;96.10;;;;;;5074459;28;20482;-61
2023/03/29 03:13:02;;;;;;;16.30;6.27;;;6.80;96.00;;;;;;5055915;28;20896;-60
2023/03/29 03:15:29;;;;;;;12.03;6.07;;;6.80;95.90;;;;;;5065026;28;20485;-61
2023/03/29 03:17:56;;;;;;;15.63;7.43;;;6.80;95.80;;;;;;5071893;28;20490;-61
2023/03/29 03:20:25;;;;;;;22.40;5.37;;;6.80;95.60;;;;;;5064394;28;20485;-60
2023/03/29 03:22:52;;;;;;;13.67;7.00;;;6.70;95.60;;;;;;5071283;28;20891;-60
2023/03/29 03:25:20;;;;;;;22.13;8.90;;;6.60;95.50;;;;;;5067800;28;20490;-61
2023/03/29 03:27:47;;;;;;;19.63;5.20;;;6.50;95.70;;;;;;5062627;28;20997;-60
2023/03/29 03:30:14;;;;;;;27.43;10.50;;;6.50;95.80;;;;;;5030837;28;20497;-60
2023/03/29 03:32:42;;;;;;;16.80;6.90;;;6.60;95.80;;;;;;5029705;28;20479;-60
2023/03/29 03:35:10;;;;;;;34.23;11.43;;;6.50;95.80;;;;;;5055604;28;20818;-60
2023/03/29 03:37:39;;;;;;;17.70;6.73;;;6.60;95.90;;;;;;5073156;28;20498;-60
2023/03/29 03:40:10;;;;;;;24.27;9.60;;;;;;;;;;5055348;28;21088;-60
2023/03/29 03:42:38;;;;;;;14.37;6.80;;;6.60;95.70;;;;;;5060157;28;20504;-60
2023/03/29 03:45:07;;;;;;;21.07;8.20;;;6.60;95.70;;;;;;5068134;28;20911;-60
2023/03/29 03:47:34;;;;;;;16.20;7.30;;;6.60;95.50;;;;;;5066457;28;20574;-60
2023/03/29 03:50:00;;;;;;;12.40;6.40;;;6.60;95.40;;;;;;5065112;28;20461;-60
2023/03/29 03:52:27;;;;;;;9.90;5.07;;;6.60;95.30;;;;;;5066393;28;20682;-60
2023/03/29 03:54:55;;;;;;;14.17;6.23;;;6.60;95.40;;;;;;5069562;28;20466;-60
2023/03/29 03:57:23;;;;;;;17.80;8.43;;;6.60;95.50;;;;;;5072893;28;20477;-60
2023/03/29 03:59:50;;;;;;;16.00;7.70;;;6.60;95.70;;;;;;5068781;28;20489;-60
2023/03/29 04:02:16;;;;;;;21.33;9.20;;;6.60;95.80;;;;;;5042847;28;20842;-60
2023/03/29 04:04:43;;;;;;;12.03;5.57;;;6.60;95.80;;;;;;5083648;28;20486;-60
2023/03/29 04:07:46;;;;;;;46.53;13.43;;;6.60;95.80;;;;;;5042818;28;20504;-60
2023/03/29 04:10:14;;;;;;;34.13;13.40;;;6.60;95.80;;;;;;5050420;28;20598;-60
2023/03/29 04:12:41;;;;;;;17.80;7.90;;;6.60;95.90;;;;;;5036348;28;20956;-61
2023/03/29 04:15:09;;;;;;;29.30;12.10;;;6.50;95.90;;;;;;5054851;28;20684;-61
2023/03/29 04:17:36;;;;;;;14.73;7.30;;;6.50;95.90;;;;;;5066597;28;20685;-60
2023/03/29 04:20:08;;;;;;;17.87;7.60;;;6.20;95.90;;;;;;5049526;28;20490;-60
2023/03/29 04:22:35;;;;;;;15.63;7.97;;;6.20;96.40;;;;;;5056172;28;20557;-60
2023/03/29 04:25:02;;;;;;;23.93;10.37;;;6.10;96.50;;;;;;5069532;28;20672;-59
2023/03/29 04:27:30;;;;;;;20.07;9.97;;;6.20;96.50;;;;;;5070678;28;20827;-60
2023/03/29 04:29:57;;;;;;;20.37;7.93;;;6.30;96.40;;;;;;5064420;28;20506;-60
2023/03/29 04:32:23;;;;;;;15.60;6.90;;;6.30;96.30;;;;;;5077471;28;20881;-60
2023/03/29 04:34:50;;;;;;;17.63;8.07;;;6.30;96.20;;;;;;5057234;28;20544;-59
2023/03/29 04:37:20;;;;;;;35.00;13.77;;;6.20;96.20;;;;;;5071953;28;20481;-60
2023/03/29 04:39:48;;;;;;;19.83;8.53;;;6.30;96.40;;;;;;5062650;28;20553;-60
2023/03/29 04:42:15;;;;;;;30.47;11.00;;;6.30;96.40;;;;;;5062007;28;20572;-60
2023/03/29 04:44:43;;;;;;;18.53;8.80;;;6.40;96.50;;;;;;5077697;28;20482;-60
2023/03/29 04:47:11;;;;;;;36.63;14.63;;;6.40;96.50;;;;;;5059859;28;20481;-60
2023/03/29 04:49:38;;;;;;;18.80;7.50;;;6.50;96.50;;;;;;5060385;28;20489;-60
2023/03/29 04:52:05;;;;;;;26.93;11.33;;;6.50;96.70;;;;;;5051250;28;20493;-60
2023/03/29 04:54:32;;;;;;;16.53;8.03;;;6.60;96.60;;;;;;5066469;28;21179;-60
2023/03/29 04:56:58;;;;;;;18.13;7.50;;;6.60;96.60;;;;;;5064163;28;20489;-60
2023/03/29 04:59:25;;;;;;;23.27;6.70;;;6.70;96.70;;;;;;5059610;28;20485;-60
2023/03/29 05:01:53;;;;;;;14.37;8.17;;;6.70;96.70;;;;;;5038700;28;20489;-60
2023/03/29 05:04:20;;;;;;;26.53;9.90;;;6.70;96.70;;;;;;5067801;28;20980;-60
2023/03/29 05:06:47;;;;;;;16.23;8.87;;;6.70;97.00;;;;;;5072340;28;20581;-60
2023/03/29 05:09:14;;;;;;;21.57;10.07;;;6.70;96.80;;;;;;5074095;28;20497;-60
2023/03/29 05:11:41;;;;;;;27.13;11.70;;;6.70;96.90;;;;;;5077249;28;20481;-61
2023/03/29 05:14:08;;;;;;;15.67;9.10;;;6.80;97.30;;;;;;5078727;28;20485;-61
2023/03/29 05:16:36;;;;;;;16.77;8.90;;;6.80;97.20;;;;;;5065020;28;20486;-60
2023/03/29 05:19:05;;;;;;;27.40;9.63;;;6.90;97.00;;;;;;5067190;28;20515;-60
2023/03/29 05:21:32;;;;;;;18.20;9.03;;;7.00;97.30;;;;;;5077542;28;21345;-60
2023/03/29 05:23:59;;;;;;;15.43;8.57;;;7.00;97.50;;;;;;5045823;28;20993;-60
2023/03/29 05:26:26;;;;;;;15.50;6.03;;;7.10;97.80;;;;;;5068390;28;20486;-60
2023/03/29 05:28:53;;;;;;;13.33;7.20;;;7.20;97.90;;;;;;5066898;28;20470;-60
2023/03/29 05:31:20;;;;;;;24.97;10.87;;;7.20;97.60;;;;;;5079011;27;20469;-60
2023/03/29 05:33:47;;;;;;;15.93;6.97;;;7.20;98.00;;;;;;5072190;28;20486;-60
2023/03/29 05:36:18;;;;;;;29.47;11.03;;;7.30;98.10;;;;;;5072553;28;20485;-61
2023/03/29 05:38:45;;;;;;;13.20;7.20;;;7.40;98.30;;;;;;5036342;28;20904;-60
2023/03/29 05:41:12;;;;;;;26.50;12.80;;;7.50;98.00;;;;;;5051980;28;20480;-60
2023/03/29 05:43:39;;;;;;;12.30;7.20;;;7.50;98.40;;;;;;5066337;27;20490;-60
2023/03/29 05:46:06;;;;;;;13.33;7.37;;;7.50;98.30;;;;;;5051651;28;20746;-60
2023/03/29 05:48:32;;;;;;;13.57;8.20;;;7.70;98.10;;;;;;5067877;28;20482;-60
2023/03/29 05:50:59;;;;;;;14.30;8.80;;;7.70;98.00;;;;;;5082123;28;20834;-60
2023/03/29 05:53:29;;;;;;;13.07;7.70;;;7.90;98.00;;;;;;5081223;28;21036;-60
2023/03/29 05:55:55;;;;;;;14.03;7.77;;;7.90;97.90;;;;;;5086050;28;20473;-60
2023/03/29 05:58:25;;;;;;;16.03;9.00;;;7.90;99.10;;;;;;5052794;28;20557;-60
2023/03/29 06:00:52;;;;;;;17.77;7.93;;;8.00;98.70;;;;;;5052594;28;20485;-60
2023/03/29 06:03:22;;;;;;;18.53;9.03;;;8.10;99.10;;;;;;5065830;28;20980;-61
2023/03/29 06:05:55;;;;;;;10.73;5.93;;;8.10;98.30;;;;;;5065764;28;20466;-61
2023/03/29 06:08:22;;;;;;;19.23;9.00;;;8.10;98.60;;;;;;5070668;28;20515;-61
2023/03/29 06:10:50;;;;;;;9.77;5.90;;;8.20;98.70;;;;;;5093405;28;20478;-61
2023/03/29 06:13:17;;;;;;;22.90;10.30;;;9.70;99.60;;;;;;5090007;28;20480;-61
2023/03/29 06:15:44;;;;;;;19.63;10.13;;;8.30;99.10;;;;;;5073829;28;20672;-61
2023/03/29 06:18:10;;;;;;;28.17;12.40;;;8.40;99.60;;;;;;5069701;28;20556;-61
2023/03/29 06:20:37;;;;;;;17.50;7.70;;;8.40;99.60;;;;;;5070719;28;20475;-60
2023/03/29 06:23:04;;;;;;;19.77;7.47;;;8.20;99.20;;;;;;5042780;28;20488;-61
2023/03/29 06:25:30;;;;;;;15.90;7.80;;;8.50;99.60;;;;;;5063446;27;20575;-60
2023/03/29 06:27:58;;;;;;;15.20;8.23;;;8.60;99.90;;;;;;5072299;28;20485;-61
2023/03/29 06:30:25;;;;;;;18.13;7.00;;;8.60;99.90;;;;;;5066009;28;20485;-61
2023/03/29 06:32:51;;;;;;;9.10;5.73;;;8.70;99.90;;;;;;5074312;28;20483;-61
2023/03/29 06:35:19;;;;;;;25.03;11.30;;;8.80;99.90;;;;;;5072351;28;20516;-61
2023/03/29 06:37:49;;;;;;;18.03;6.47;;;8.80;99.90;;;;;;5072420;28;20501;-61
2023/03/29 06:40:17;;;;;;;21.87;10.30;;;8.80;99.90;;;;;;5065772;28;20592;-61
2023/03/29 06:42:44;;;;;;;13.00;7.63;;;8.80;99.90;;;;;;5080145;28;20486;-61
2023/03/29 06:45:13;;;;;;;26.23;10.73;;;9.00;99.90;;;;;;5060404;28;20518;-61
2023/03/29 06:47:40;;;;;;;16.70;7.33;;;9.00;99.90;;;;;;5074723;28;20485;-60
2023/03/29 06:50:09;;;;;;;19.33;9.80;;;9.10;99.90;;;;;;5065200;28;20505;-61
2023/03/29 06:52:35;;;;;;;19.03;7.60;;;9.20;99.70;;;;;;5066965;28;20474;-61
2023/03/29 06:55:06;;;;;;;13.57;6.87;;;9.20;99.80;;;;;;5090442;28;20888;-61
2023/03/29 06:57:32;;;;;;;17.03;8.07;;;9.30;99.20;;;;;;5093768;28;21011;-61
2023/03/29 06:59:59;;;;;;;13.40;7.23;;;9.30;99.10;;;;;;5081651;28;20496;-61
2023/03/29 07:02:27;;;;;;;16.67;8.80;;;9.40;99.20;;;;;;5064938;27;20478;-61
2023/03/29 07:04:54;;;;;;;11.43;5.63;;;9.60;98.90;;;;;;5059317;28;20990;-61
2023/03/29 07:07:21;;;;;;;15.20;5.73;;;9.60;99.20;;;;;;5048633;28;20566;-61
2023/03/29 07:09:52;;;;;;;11.57;7.10;;;9.60;99.50;;;;;;5052740;28;20958;-61
2023/03/29 07:12:20;;;;;;;36.73;10.73;;;9.70;99.80;;;;;;5055009;28;20531;-62
2023/03/29 07:14:47;;;;;;;11.50;6.17;;;9.70;99.10;;;;;;5053746;28;20573;-61
2023/03/29 07:17:15;;;;;;;31.30;13.30;;;9.80;99.30;;;;;;5039856;28;21283;-61
2023/03/29 07:19:43;;;;;;;17.77;8.40;;;9.40;98.80;;;;;;5054971;28;21049;-61
2023/03/29 07:22:10;;;;;;;25.43;10.60;;;9.70;98.60;;;;;;5025170;28;20483;-61
2023/03/29 07:24:37;;;;;;;17.10;7.37;;;9.80;99.10;;;;;;5051393;28;20578;-61
2023/03/29 07:27:04;;;;;;;30.63;9.20;;;9.90;98.60;;;;;;5010798;28;20488;-61
2023/03/29 07:29:31;;;;;;;22.67;8.20;;;;;;;;;;5060124;28;21056;-62
2023/03/29 07:31:58;;;;;;;22.27;8.30;;;;;;;;;;5047199;28;20839;-61
2023/03/29 07:34:24;;;;;;;18.17;6.93;;;10.00;97.80;;;;;;5026838;28;21041;-61
2023/03/29 07:36:53;;;;;;;18.27;8.37;;;10.10;98.00;;;;;;5060327;28;20986;-61
2023/03/29 07:39:21;;;;;;;31.63;11.20;;;10.20;98.00;;;;;;5061539;28;20477;-62
2023/03/29 07:41:47;;;;;;;21.83;8.10;;;10.30;98.10;;;;;;5065387;28;20504;-62
2023/03/29 07:44:17;;;;;;;34.60;12.03;;;10.30;97.60;;;;;;5073789;28;20494;-61
2023/03/29 07:46:43;;;;;;;18.60;8.00;;;10.40;98.40;;;;;;5052008;28;20897;-62
2023/03/29 07:49:10;;;;;;;35.77;12.23;;;10.50;97.20;;;;;;5062842;28;20874;-61
2023/03/29 07:51:37;;;;;;;16.07;7.53;;;10.60;97.40;;;;;;5074528;28;21062;-61
2023/03/29 07:54:05;;;;;;;18.47;8.57;;;10.50;96.70;;;;;;5059189;28;20477;-62
2023/03/29 07:56:32;;;;;;;27.50;9.07;;;10.60;97.90;;;;;;5058298;28;20470;-62
2023/03/29 07:58:58;;;;;;;16.00;7.27;;;10.70;96.90;;;;;;5073574;28;20473;-62
2023/03/29 08:01:25;;;;;;;20.70;8.63;;;10.70;96.40;;;;;;5052572;28;20487;-62
2023/03/29 08:03:52;;;;;;;18.27;7.97;;;10.90;97.00;;;;;;5090749;28;20481;-62
2023/03/29 08:06:18;;;;;;;33.67;12.63;;;11.00;97.10;;;;;;5065150;28;20474;-62
2023/03/29 08:08:45;;;;;;;17.87;8.27;;;11.00;96.70;;;;;;5074352;28;20543;-62
2023/03/29 08:11:14;;;;;;;32.60;12.07;;;11.20;97.70;;;;;;5059722;28;20481;-62
2023/03/29 08:13:41;;;;;;;19.40;8.50;;;11.20;96.20;;;;;;5075899;28;20478;-62
2023/03/29 08:16:08;;;;;;;29.70;11.77;;;11.20;95.30;;;;;;5077953;28;20473;-62
2023/03/29 08:18:35;;;;;;;23.40;9.67;;;11.50;96.70;;;;;;5045362;28;21178;-62
2023/03/29 08:21:02;;;;;;;16.30;7.37;;;11.50;95.80;;;;;;5056181;28;20519;-62
2023/03/29 08:23:28;;;;;;;13.67;8.20;;;11.60;95.60;;;;;;5071501;27;20477;-62
2023/03/29 08:25:55;;;;;;;16.77;7.93;;;11.70;94.20;;;;;;5068879;28;20942;-62
2023/03/29 08:28:23;;;;;;;26.73;10.30;;;11.80;94.50;;;;;;5078950;28;20481;-63
2023/03/29 08:30:50;;;;;;;24.03;8.40;;;11.80;94.30;;;;;;5055487;28;20889;-62
2023/03/29 08:33:17;;;;;;;29.07;11.60;;;11.80;95.30;;;;;;5050775;28;20486;-62
2023/03/29 08:35:44;;;;;;;24.37;10.50;;;11.90;94.20;;;;;;5075692;28;20946;-62
2023/03/29 08:38:11;;;;;;;43.47;15.07;;;12.00;94.50;;;;;;5089374;28;20485;-61
2023/03/29 08:40:38;;;;;;;24.53;8.63;;;12.10;94.90;;;;;;5069642;28;20501;-62
2023/03/29 08:43:45;;;;;;;23.17;9.97;;;12.20;94.60;;;;;;5071759;28;20863;-62
2023/03/29 08:46:22;;;;;;;39.13;14.00;;;12.30;94.20;;;;;;5056917;28;20474;-62
2023/03/29 08:48:55;;;;;;;18.13;9.40;;;12.40;93.70;;;;;;5058423;28;20894;-62
2023/03/29 08:51:27;;;;;;;25.77;10.83;;;12.30;93.40;;;;;;5071406;28;20492;-62
2023/03/29 08:53:57;;;;;;;18.77;8.80;;;12.70;94.10;;;;;;5088283;28;20738;-62
2023/03/29 08:56:28;;;;;;;23.10;7.83;;;12.40;93.50;;;;;;5069556;28;20482;-62
2023/03/29 08:58:58;;;;;;;12.27;6.97;;;12.60;94.20;;;;;;5059730;28;20705;-62
2023/03/29 09:01:25;;;;;;;15.43;8.37;;;;;;;;;;5063446;28;20540;-62
2023/03/29 09:04:02;;;;;;;12.00;6.70;;;12.70;93.20;;;;;;5048182;28;20489;-62
2023/03/29 09:06:28;;;;;;;15.60;7.93;;;12.80;92.60;;;;;;5064310;27;20469;-62
2023/03/29 09:08:56;;;;;;;19.50;7.77;;;12.80;94.70;;;;;;5073766;27;20503;-62
2023/03/29 09:11:37;;;;;;;12.83;7.40;;;12.90;93.60;;;;;;5069504;28;21137;-62
2023/03/29 09:14:30;;;;;;;19.53;7.63;;;13.00;93.40;;;;;;5045543;28;20529;-62
2023/03/29 09:17:00;;;;;;;8.70;6.30;;;13.10;93.60;;;;;;5069947;28;20596;-62
2023/03/29 09:19:35;;;;;;;18.00;8.00;;;13.30;93.10;;;;;;5072701;28;20478;-63
2023/03/29 09:22:14;;;;;;;11.50;6.57;;;13.40;92.90;;;;;;5051507;28;21018;-62
2023/03/29 09:24:52;;;;;;;13.20;7.37;;;13.50;92.50;;;;;;5054796;28;20494;-63
2023/03/29 09:27:25;;;;;;;22.70;11.17;;;13.40;92.40;;;;;;5061479;28;20551;-62
2023/03/29 09:30:09;;;;;;;25.33;8.43;;;13.30;92.40;;;;;;5050416;28;20489;-63
2023/03/29 09:32:42;;;;;;;10.00;6.50;;;13.20;92.00;;;;;;5071813;28;20482;-62
2023/03/29 09:35:17;;;;;;;26.33;9.57;;;13.30;92.60;;;;;;5070072;28;20863;-62
2023/03/29 09:37:47;;;;;;;12.23;5.80;;;13.30;92.30;;;;;;5066222;28;20483;-63
2023/03/29 09:40:16;;;;;;;22.40;11.93;;;;;;;;;;5018945;27;20492;-62
2023/03/29 09:42:44;;;;;;;14.00;7.83;;;13.20;91.60;;;;;;5058276;27;20689;-63
2023/03/29 09:45:13;;;;;;;15.40;9.20;;;13.20;91.90;;;;;;5055323;28;20520;-62
2023/03/29 09:47:43;;;;;;;8.33;6.03;;;13.30;91.70;;;;;;5067956;28;20489;-63
2023/03/29 09:50:15;;;;;;;20.27;10.63;;;13.20;91.60;;;;;;5042567;28;20483;-62
2023/03/29 09:52:42;;;;;;;13.20;8.20;;;13.30;92.20;;;;;;5074380;28;20481;-62
2023/03/29 09:55:13;;;;;;;23.17;10.23;;;13.40;92.40;;;;;;5084476;28;20874;-63
2023/03/29 09:57:40;;;;;;;12.13;7.60;;;13.40;92.50;;;;;;5061440;28;20504;-63
2023/03/29 10:00:09;;;;;;;20.37;11.27;;;13.30;91.70;;;;;;5069219;28;21082;-63
2023/03/29 10:02:37;;;;;;;17.47;7.67;;;13.40;92.40;;;;;;5063761;28;20474;-63
2023/03/29 10:05:05;;;;;;;13.43;7.97;;;13.50;93.00;;;;;;5067052;28;21075;-63
2023/03/29 10:07:43;;;;;;;12.80;7.90;;;13.70;92.90;;;;;;5059719;28;20475;-63
2023/03/29 10:10:18;;;;;;;18.17;10.90;;;13.70;91.80;;;;;;5069080;28;20550;-63
2023/03/29 10:12:49;;;;;;;9.27;5.83;;;13.70;91.50;;;;;;5055327;27;20486;-63
2023/03/29 10:15:17;;;;;;;16.43;10.33;;;13.80;92.80;;;;;;5058676;28;20787;-63
2023/03/29 10:17:46;;;;;;;14.00;8.03;;;13.80;92.50;;;;;;5047045;28;20534;-63
2023/03/29 10:20:17;;;;;;;22.47;10.17;;;13.80;92.00;;;;;;5060305;28;20906;-63
2023/03/29 10:22:48;;;;;;;9.87;7.20;;;13.70;91.70;;;;;;5060847;28;20509;-64
2023/03/29 10:25:16;;;;;;;17.53;11.03;;;13.70;92.00;;;;;;5060729;28;22268;-63
2023/03/29 10:27:46;;;;;;;13.00;5.93;;;13.70;91.80;;;;;;5052778;28;20485;-63
2023/03/29 10:30:22;;;;;;;19.73;11.67;;;13.70;92.20;;;;;;5042961;28;20781;-63
2023/03/29 10:32:56;;;;;;;10.93;6.70;;;13.90;92.40;;;;;;5063322;28;20571;-63
2023/03/29 10:35:28;;;;;;;12.00;7.97;;;13.90;92.20;;;;;;5074319;28;20500;-63
2023/03/29 10:37:58;;;;;;;10.10;6.70;;;14.00;92.30;;;;;;5049243;28;20485;-63
2023/03/29 10:40:29;;;;;;;10.67;4.80;;;14.10;92.90;;;;;;5051630;28;21035;-63
2023/03/29 10:42:59;;;;;;;7.80;5.77;;;14.20;91.70;;;;;;5059178;28;20481;-63
2023/03/29 10:45:28;;;;;;;27.17;8.83;;;14.30;93.10;;;;;;5072087;28;20469;-63
2023/03/29 10:47:57;;;;;;;17.70;6.63;;;14.40;92.40;;;;;;5072813;28;20485;-64
2023/03/29 10:50:25;;;;;;;11.20;6.33;;;14.50;91.80;;;;;;5070790;28;21169;-64
2023/03/29 10:52:52;;;;;;;22.83;5.47;;;14.70;92.60;;;;;;5058894;28;20847;-63
2023/03/29 10:55:21;;;;;;;22.80;10.50;;;14.80;92.10;;;;;;5080138;28;20966;-63
2023/03/29 10:57:58;;;;;;;7.20;5.00;;;14.90;91.90;;;;;;5072803;28;20485;-63
2023/03/29 11:00:32;;;;;;;9.87;7.13;;;14.90;92.30;;;;;;5059097;28;20474;-64
2023/03/29 11:03:26;;;;;;;32.50;8.03;;;14.90;91.60;;;;;;5065097;28;20576;-63
2023/03/29 11:06:00;;;;;;;9.93;6.03;;;14.90;91.00;;;;;;5064072;28;20908;-63
2023/03/29 11:08:42;;;;;;;10.03;6.43;;;14.90;92.00;;;;;;5076901;28;20900;-63
2023/03/29 11:11:23;;;;;;;15.93;9.83;;;15.10;92.70;;;;;;5062695;28;20473;-64
2023/03/29 11:13:58;;;;;;;5.77;4.60;;;15.30;92.20;;;;;;5059452;28;20490;-63
2023/03/29 11:16:33;;;;;;;10.63;6.70;;;15.40;92.00;;;;;;5053075;28;20488;-63
2023/03/29 11:19:38;;;;;;;9.43;6.83;;;15.50;92.10;;;;;;5089153;28;20606;-63
2023/03/29 11:22:07;;;;;;;12.10;7.63;;;;;;;;;;5065094;28;20526;-64
2023/03/29 11:24:49;;;;;;;10.97;7.53;;;15.80;92.20;;;;;;5069754;28;20481;-63
2023/03/29 11:27:26;;;;;;;15.50;10.60;;;15.90;91.50;;;;;;5050949;28;20496;-63
2023/03/29 11:30:05;;;;;;;8.10;5.70;;;16.00;91.20;;;;;;5048139;28;20489;-63
2023/03/29 11:32:41;;;;;;;10.17;5.70;;;16.10;91.80;;;;;;5079423;27;20868;-63
2023/03/29 11:35:41;;;;;;;18.60;9.00;;;15.90;91.00;;;;;;5070630;28;20817;-64
2023/03/29 11:38:15;;;;;;;13.30;7.27;;;15.80;91.50;;;;;;5024483;28;20594;-63
2023/03/29 11:40:53;;;;;;;9.43;7.03;;;15.70;91.50;;;;;;5077374;28;20478;-64
2023/03/29 11:43:26;;;;;;;18.13;7.03;;;15.90;93.20;;;;;;5062926;28;20753;-63
2023/03/29 11:45:59;;;;;;;6.83;4.23;;;16.00;93.70;;;;;;5088661;27;20827;-63
2023/03/29 11:48:31;;;;;;;6.87;4.43;;;15.80;91.80;;;;;;5064562;28;20743;-63
2023/03/29 11:51:05;;;;;;;10.70;5.43;;;15.80;92.30;;;;;;5067337;28;20489;-63
2023/03/29 11:53:37;;;;;;;9.00;5.10;;;;;;;;;;5065001;28;20472;-63
2023/03/29 11:56:10;;;;;;;9.60;5.57;;;15.30;91.90;;;;;;5060281;28;20486;-63
2023/03/29 11:58:41;;;;;;;9.13;6.10;;;15.10;92.20;;;;;;5058656;28;20483;-64
2023/03/29 12:01:12;;;;;;;14.40;6.47;;;14.80;92.40;;;;;;5055232;28;20711;-64
2023/03/29 12:03:43;;;;;;;10.93;6.40;;;14.70;92.30;;;;;;5066363;28;20854;-64
2023/03/29 12:06:16;;;;;;;18.40;9.87;;;14.80;92.90;;;;;;5071454;28;20752;-63
2023/03/29 12:08:47;;;;;;;8.90;6.20;;;15.00;94.00;;;;;;5062768;28;20493;-63
2023/03/29 12:11:20;;;;;;;19.90;9.60;;;16.50;95.80;;;;;;5056512;28;20539;-63
2023/03/29 12:13:52;;;;;;;10.13;4.90;;;15.10;94.50;;;;;;5074981;28;20494;-64
2023/03/29 12:16:22;;;;;;;15.20;7.60;;;15.20;96.60;;;;;;5049303;28;21040;-63
2023/03/29 12:18:52;;;;;;;9.80;5.90;;;15.20;94.70;;;;;;5067834;28;20994;-63
2023/03/29 12:21:22;;;;;;;16.97;9.10;;;15.20;93.90;;;;;;5048142;28;20818;-63
2023/03/29 12:23:50;;;;;;;10.13;5.57;;;15.10;95.00;;;;;;5076401;28;20474;-64
2023/03/29 12:26:36;;;;;;;17.40;9.13;;;15.10;93.70;;;;;;5059529;28;22059;-63
2023/03/29 12:29:15;;;;;;;11.63;6.63;;;15.10;93.10;;;;;;5058547;28;21077;-63
2023/03/29 12:31:48;;;;;;;9.27;5.10;;;15.00;94.70;;;;;;5065744;28;20591;-63
2023/03/29 12:34:41;;;;;;;23.53;9.90;;;14.80;93.30;;;;;;5076221;28;20486;-63
2023/03/29 12:37:30;;;;;;;19.57;11.00;;;14.70;93.00;;;;;;5071164;28;20906;-63
2023/03/29 12:40:11;;;;;;;10.13;6.30;;;14.60;93.10;;;;;;5034834;28;20486;-63
2023/03/29 12:42:45;;;;;;;18.70;7.70;;;14.60;93.00;;;;;;5042695;28;20480;-63
2023/03/29 12:45:19;;;;;;;14.50;8.27;;;14.50;93.10;;;;;;5033223;27;20494;-64
2023/03/29 12:47:47;;;;;;;10.97;6.70;;;14.50;92.90;;;;;;5037382;28;20653;-63
2023/03/29 12:50:27;;;;;;;24.70;12.73;;;14.50;93.60;;;;;;5061170;28;20493;-64
2023/03/29 12:53:03;;;;;;;10.83;7.03;;;14.50;93.70;;;;;;5040040;28;20484;-64
2023/03/29 12:55:32;;;;;;;13.17;7.57;;;14.70;94.80;;;;;;5070173;28;20568;-64
2023/03/29 12:58:04;;;;;;;15.50;7.23;;;15.10;94.30;;;;;;5055943;28;20958;-63